sensor_id;sensor_type;location;lat;lon;timestamp;P1;durP1;ratioP1;P2;durP2;ratioP2
30068;SDS011;16894;49.456;10.644;2023-04-03T00:02:23;100.03;;;33.83;;
30068;SDS011;16894;49.456;10.644;2023-04-03T00:04:49;117.23;;;41.37;;
30068;SDS011;16894;49.456;10.644;2023-04-03T00:07:15;90.87;;;34.00;;
30068;SDS011;16894;49.456;10.644;2023-04-03T00:09:40;42.33;;;18.77;;
30068;SDS011;16894;49.456;10.644;2023-04-03T00:12:06;15.93;;;8.83;;
30068;SDS011;16894;49.456;10.644;2023-04-03T00:14:32;7.77;;;5.73;;
30068;SDS011;16894;49.456;10.644;2023-04-03T00:16:57;7.40;;;4.57;;
30068;SDS011;16894;49.456;10.644;2023-04-03T00:19:23;7.77;;;4.87;;
30068;SDS011;16894;49.456;10.644;2023-04-03T00:21:49;5.97;;;4.07;;
30068;SDS011;16894;49.456;10.644;2023-04-03T00:24:15;7.07;;;3.17;;
30068;SDS011;16894;49.456;10.644;2023-04-03T00:26:41;4.07;;;3.53;;
30068;SDS011;16894;49.456;10.644;2023-04-03T00:29:06;5.37;;;3.33;;
30068;SDS011;16894;49.456;10.644;2023-04-03T00:31:32;4.73;;;3.50;;
30068;SDS011;16894;49.456;10.644;2023-04-03T00:33:58;7.70;;;3.90;;
30068;SDS011;16894;49.456;10.644;2023-04-03T00:36:23;4.70;;;3.37;;
30068;SDS011;16894;49.456;10.644;2023-04-03T00:38:49;7.65;;;3.42;;
30068;SDS011;16894;49.456;10.644;2023-04-03T00:41:15;11.23;;;3.83;;
30068;SDS011;16894;49.456;10.644;2023-04-03T00:43:41;4.50;;;3.07;;
30068;SDS011;16894;49.456;10.644;2023-04-03T00:46:06;4.63;;;3.43;;
30068;SDS011;16894;49.456;10.644;2023-04-03T00:48:33;4.13;;;3.22;;
30068;SDS011;16894;49.456;10.644;2023-04-03T00:51:04;3.92;;;2.88;;
30068;SDS011;16894;49.456;10.644;2023-04-03T00:53:33;4.88;;;3.10;;
30068;SDS011;16894;49.456;10.644;2023-04-03T00:56:06;4.60;;;3.80;;
30068;SDS011;16894;49.456;10.644;2023-04-03T00:58:40;8.00;;;4.22;;
30068;SDS011;16894;49.456;10.644;2023-04-03T01:01:13;3.95;;;3.08;;
30068;SDS011;16894;49.456;10.644;2023-04-03T01:03:43;4.60;;;3.22;;
30068;SDS011;16894;49.456;10.644;2023-04-03T01:06:09;5.05;;;3.50;;
30068;SDS011;16894;49.456;10.644;2023-04-03T01:08:35;6.32;;;3.63;;
30068;SDS011;16894;49.456;10.644;2023-04-03T01:11:01;4.33;;;3.60;;
30068;SDS011;16894;49.456;10.644;2023-04-03T01:13:28;7.13;;;3.50;;
30068;SDS011;16894;49.456;10.644;2023-04-03T01:15:56;6.90;;;3.83;;
30068;SDS011;16894;49.456;10.644;2023-04-03T01:18:25;9.98;;;3.63;;
30068;SDS011;16894;49.456;10.644;2023-04-03T01:25:59;6.88;;;3.63;;
30068;SDS011;16894;49.456;10.644;2023-04-03T01:28:26;5.45;;;3.65;;
30068;SDS011;16894;49.456;10.644;2023-04-03T01:33:38;8.80;;;3.67;;
30068;SDS011;16894;49.456;10.644;2023-04-03T01:36:04;5.88;;;3.50;;
30068;SDS011;16894;49.456;10.644;2023-04-03T01:38:31;6.55;;;4.22;;
30068;SDS011;16894;49.456;10.644;2023-04-03T01:40:56;5.95;;;3.78;;
30068;SDS011;16894;49.456;10.644;2023-04-03T01:43:22;4.80;;;3.38;;
30068;SDS011;16894;49.456;10.644;2023-04-03T01:45:48;10.18;;;4.72;;
30068;SDS011;16894;49.456;10.644;2023-04-03T01:48:15;12.18;;;5.82;;
30068;SDS011;16894;49.456;10.644;2023-04-03T01:53:07;9.35;;;4.90;;
30068;SDS011;16894;49.456;10.644;2023-04-03T01:55:32;8.52;;;3.90;;
30068;SDS011;16894;49.456;10.644;2023-04-03T01:57:58;6.00;;;3.80;;
30068;SDS011;16894;49.456;10.644;2023-04-03T02:00:24;5.15;;;3.50;;
30068;SDS011;16894;49.456;10.644;2023-04-03T02:02:51;6.43;;;3.72;;
30068;SDS011;16894;49.456;10.644;2023-04-03T02:05:17;4.53;;;3.53;;
30068;SDS011;16894;49.456;10.644;2023-04-03T02:07:42;6.70;;;3.77;;
30068;SDS011;16894;49.456;10.644;2023-04-03T02:10:08;5.30;;;3.47;;
30068;SDS011;16894;49.456;10.644;2023-04-03T02:12:34;3.80;;;3.40;;
30068;SDS011;16894;49.456;10.644;2023-04-03T02:15:00;4.65;;;3.22;;
30068;SDS011;16894;49.456;10.644;2023-04-03T02:17:26;5.00;;;3.50;;
30068;SDS011;16894;49.456;10.644;2023-04-03T02:19:51;3.42;;;2.88;;
30068;SDS011;16894;49.456;10.644;2023-04-03T02:22:17;7.37;;;3.97;;
30068;SDS011;16894;49.456;10.644;2023-04-03T02:24:43;4.57;;;3.28;;
30068;SDS011;16894;49.456;10.644;2023-04-03T02:27:09;3.75;;;3.08;;
30068;SDS011;16894;49.456;10.644;2023-04-03T02:29:35;4.18;;;3.45;;
30068;SDS011;16894;49.456;10.644;2023-04-03T02:32:01;8.50;;;3.67;;
30068;SDS011;16894;49.456;10.644;2023-04-03T02:34:26;4.60;;;3.23;;
30068;SDS011;16894;49.456;10.644;2023-04-03T02:36:52;4.33;;;3.37;;
30068;SDS011;16894;49.456;10.644;2023-04-03T02:39:18;3.97;;;3.20;;
30068;SDS011;16894;49.456;10.644;2023-04-03T02:41:43;5.82;;;3.13;;
30068;SDS011;16894;49.456;10.644;2023-04-03T02:44:10;3.88;;;2.97;;
30068;SDS011;16894;49.456;10.644;2023-04-03T02:46:36;6.40;;;3.45;;
30068;SDS011;16894;49.456;10.644;2023-04-03T02:49:02;6.05;;;3.05;;
30068;SDS011;16894;49.456;10.644;2023-04-03T02:51:28;3.33;;;3.00;;
30068;SDS011;16894;49.456;10.644;2023-04-03T02:53:54;9.00;;;3.88;;
30068;SDS011;16894;49.456;10.644;2023-04-03T02:56:20;4.27;;;3.33;;
30068;SDS011;16894;49.456;10.644;2023-04-03T03:01:13;6.65;;;3.63;;
30068;SDS011;16894;49.456;10.644;2023-04-03T03:03:39;8.10;;;3.47;;
30068;SDS011;16894;49.456;10.644;2023-04-03T03:06:06;6.03;;;3.90;;
30068;SDS011;16894;49.456;10.644;2023-04-03T03:08:33;7.28;;;3.55;;
30068;SDS011;16894;49.456;10.644;2023-04-03T03:11:00;5.13;;;3.28;;
30068;SDS011;16894;49.456;10.644;2023-04-03T03:13:26;6.65;;;2.92;;
30068;SDS011;16894;49.456;10.644;2023-04-03T03:15:52;3.50;;;2.90;;
30068;SDS011;16894;49.456;10.644;2023-04-03T03:18:18;4.17;;;3.40;;
30068;SDS011;16894;49.456;10.644;2023-04-03T03:20:44;5.72;;;3.42;;
30068;SDS011;16894;49.456;10.644;2023-04-03T03:23:10;9.45;;;3.55;;
30068;SDS011;16894;49.456;10.644;2023-04-03T03:25:39;5.13;;;2.90;;
30068;SDS011;16894;49.456;10.644;2023-04-03T03:28:05;6.75;;;2.85;;
30068;SDS011;16894;49.456;10.644;2023-04-03T03:30:31;11.40;;;2.92;;
30068;SDS011;16894;49.456;10.644;2023-04-03T03:32:57;10.75;;;3.33;;
30068;SDS011;16894;49.456;10.644;2023-04-03T03:35:23;10.73;;;3.27;;
30068;SDS011;16894;49.456;10.644;2023-04-03T03:37:48;3.43;;;2.57;;
30068;SDS011;16894;49.456;10.644;2023-04-03T03:40:14;3.72;;;2.67;;
30068;SDS011;16894;49.456;10.644;2023-04-03T03:42:40;8.50;;;3.00;;
30068;SDS011;16894;49.456;10.644;2023-04-03T03:45:06;8.18;;;3.40;;
30068;SDS011;16894;49.456;10.644;2023-04-03T03:47:32;8.82;;;3.30;;
30068;SDS011;16894;49.456;10.644;2023-04-03T03:49:58;9.83;;;3.40;;
30068;SDS011;16894;49.456;10.644;2023-04-03T03:52:24;8.77;;;3.40;;
30068;SDS011;16894;49.456;10.644;2023-04-03T03:54:49;8.15;;;2.85;;
30068;SDS011;16894;49.456;10.644;2023-04-03T03:57:15;9.73;;;3.60;;
30068;SDS011;16894;49.456;10.644;2023-04-03T03:59:41;4.97;;;2.70;;
30068;SDS011;16894;49.456;10.644;2023-04-03T04:02:07;6.90;;;2.90;;
30068;SDS011;16894;49.456;10.644;2023-04-03T04:04:33;12.25;;;3.22;;
30068;SDS011;16894;49.456;10.644;2023-04-03T04:06:59;20.60;;;10.43;;
30068;SDS011;16894;49.456;10.644;2023-04-03T04:09:25;11.15;;;5.35;;
30068;SDS011;16894;49.456;10.644;2023-04-03T04:11:52;10.27;;;4.05;;
30068;SDS011;16894;49.456;10.644;2023-04-03T04:14:18;8.68;;;4.13;;
30068;SDS011;16894;49.456;10.644;2023-04-03T04:16:45;9.07;;;3.72;;
30068;SDS011;16894;49.456;10.644;2023-04-03T04:21:37;8.82;;;3.58;;
30068;SDS011;16894;49.456;10.644;2023-04-03T04:24:04;7.95;;;3.88;;
30068;SDS011;16894;49.456;10.644;2023-04-03T04:26:31;11.30;;;6.38;;
30068;SDS011;16894;49.456;10.644;2023-04-03T04:28:56;11.73;;;6.35;;
30068;SDS011;16894;49.456;10.644;2023-04-03T04:31:22;15.50;;;5.20;;
30068;SDS011;16894;49.456;10.644;2023-04-03T04:33:48;13.25;;;6.40;;
30068;SDS011;16894;49.456;10.644;2023-04-03T04:36:14;8.07;;;5.43;;
30068;SDS011;16894;49.456;10.644;2023-04-03T04:38:40;15.32;;;6.68;;
30068;SDS011;16894;49.456;10.644;2023-04-03T04:43:32;18.23;;;5.60;;
30068;SDS011;16894;49.456;10.644;2023-04-03T04:46:05;13.27;;;5.63;;
30068;SDS011;16894;49.456;10.644;2023-04-03T04:48:33;10.45;;;5.47;;
30068;SDS011;16894;49.456;10.644;2023-04-03T04:50:59;23.80;;;6.88;;
30068;SDS011;16894;49.456;10.644;2023-04-03T04:53:25;18.55;;;5.90;;
30068;SDS011;16894;49.456;10.644;2023-04-03T04:55:51;9.87;;;5.43;;
30068;SDS011;16894;49.456;10.644;2023-04-03T04:58:17;9.02;;;6.07;;
30068;SDS011;16894;49.456;10.644;2023-04-03T05:00:43;31.42;;;5.90;;
30068;SDS011;16894;49.456;10.644;2023-04-03T05:03:09;11.07;;;6.33;;
30068;SDS011;16894;49.456;10.644;2023-04-03T05:05:35;14.43;;;5.30;;
30068;SDS011;16894;49.456;10.644;2023-04-03T05:08:01;10.88;;;6.28;;
30068;SDS011;16894;49.456;10.644;2023-04-03T05:10:28;13.52;;;5.95;;
30068;SDS011;16894;49.456;10.644;2023-04-03T05:12:53;9.35;;;5.10;;
30068;SDS011;16894;49.456;10.644;2023-04-03T05:15:19;20.60;;;7.07;;
30068;SDS011;16894;49.456;10.644;2023-04-03T05:17:45;12.95;;;6.50;;
30068;SDS011;16894;49.456;10.644;2023-04-03T05:20:11;13.55;;;5.80;;
30068;SDS011;16894;49.456;10.644;2023-04-03T05:22:37;7.93;;;6.38;;
30068;SDS011;16894;49.456;10.644;2023-04-03T05:25:03;7.90;;;5.03;;
30068;SDS011;16894;49.456;10.644;2023-04-03T05:27:29;11.55;;;5.70;;
30068;SDS011;16894;49.456;10.644;2023-04-03T05:29:55;11.67;;;5.40;;
30068;SDS011;16894;49.456;10.644;2023-04-03T05:32:22;7.57;;;6.03;;
30068;SDS011;16894;49.456;10.644;2023-04-03T05:34:48;14.10;;;5.80;;
30068;SDS011;16894;49.456;10.644;2023-04-03T05:37:14;10.80;;;5.20;;
30068;SDS011;16894;49.456;10.644;2023-04-03T05:39:40;10.32;;;6.28;;
30068;SDS011;16894;49.456;10.644;2023-04-03T05:42:06;18.33;;;8.32;;
30068;SDS011;16894;49.456;10.644;2023-04-03T05:44:32;25.95;;;9.63;;
30068;SDS011;16894;49.456;10.644;2023-04-03T05:46:58;14.77;;;6.53;;
30068;SDS011;16894;49.456;10.644;2023-04-03T05:49:24;20.33;;;9.57;;
30068;SDS011;16894;49.456;10.644;2023-04-03T05:51:50;19.13;;;6.10;;
30068;SDS011;16894;49.456;10.644;2023-04-03T05:54:21;11.68;;;5.13;;
30068;SDS011;16894;49.456;10.644;2023-04-03T05:56:49;13.07;;;6.70;;
30068;SDS011;16894;49.456;10.644;2023-04-03T05:59:15;30.38;;;6.18;;
30068;SDS011;16894;49.456;10.644;2023-04-03T06:01:42;17.70;;;8.25;;
30068;SDS011;16894;49.456;10.644;2023-04-03T06:04:07;23.85;;;12.93;;
30068;SDS011;16894;49.456;10.644;2023-04-03T06:06:46;22.35;;;11.63;;
30068;SDS011;16894;49.456;10.644;2023-04-03T06:09:14;23.77;;;9.52;;
30068;SDS011;16894;49.456;10.644;2023-04-03T06:11:41;37.83;;;19.55;;
30068;SDS011;16894;49.456;10.644;2023-04-03T06:14:07;26.10;;;12.70;;
30068;SDS011;16894;49.456;10.644;2023-04-03T06:16:34;29.65;;;12.88;;
30068;SDS011;16894;49.456;10.644;2023-04-03T06:18:59;44.40;;;18.98;;
30068;SDS011;16894;49.456;10.644;2023-04-03T06:21:26;26.33;;;15.32;;
30068;SDS011;16894;49.456;10.644;2023-04-03T06:23:52;22.83;;;12.20;;
30068;SDS011;16894;49.456;10.644;2023-04-03T06:26:17;13.10;;;6.40;;
30068;SDS011;16894;49.456;10.644;2023-04-03T06:28:43;15.43;;;6.30;;
30068;SDS011;16894;49.456;10.644;2023-04-03T06:31:09;16.47;;;8.27;;
30068;SDS011;16894;49.456;10.644;2023-04-03T06:33:35;13.63;;;8.07;;
30068;SDS011;16894;49.456;10.644;2023-04-03T06:36:03;28.77;;;10.97;;
30068;SDS011;16894;49.456;10.644;2023-04-03T06:38:30;15.32;;;8.82;;
30068;SDS011;16894;49.456;10.644;2023-04-03T06:40:56;14.60;;;6.05;;
30068;SDS011;16894;49.456;10.644;2023-04-03T06:43:21;13.02;;;5.70;;
30068;SDS011;16894;49.456;10.644;2023-04-03T06:45:48;9.82;;;5.03;;
30068;SDS011;16894;49.456;10.644;2023-04-03T06:48:13;11.88;;;5.30;;
30068;SDS011;16894;49.456;10.644;2023-04-03T06:50:39;14.27;;;4.50;;
30068;SDS011;16894;49.456;10.644;2023-04-03T06:53:05;11.35;;;4.63;;
30068;SDS011;16894;49.456;10.644;2023-04-03T06:55:32;12.77;;;4.38;;
30068;SDS011;16894;49.456;10.644;2023-04-03T06:57:58;6.22;;;4.03;;
30068;SDS011;16894;49.456;10.644;2023-04-03T07:00:24;7.70;;;4.35;;
30068;SDS011;16894;49.456;10.644;2023-04-03T07:02:50;9.80;;;4.22;;
30068;SDS011;16894;49.456;10.644;2023-04-03T07:07:42;8.93;;;3.90;;
30068;SDS011;16894;49.456;10.644;2023-04-03T07:10:08;8.53;;;3.50;;
30068;SDS011;16894;49.456;10.644;2023-04-03T07:12:34;9.70;;;4.07;;
30068;SDS011;16894;49.456;10.644;2023-04-03T07:15:00;8.40;;;4.07;;
30068;SDS011;16894;49.456;10.644;2023-04-03T07:17:26;9.10;;;3.67;;
30068;SDS011;16894;49.456;10.644;2023-04-03T07:19:52;9.57;;;3.22;;
30068;SDS011;16894;49.456;10.644;2023-04-03T07:22:17;9.15;;;3.45;;
30068;SDS011;16894;49.456;10.644;2023-04-03T07:24:43;9.57;;;3.63;;
30068;SDS011;16894;49.456;10.644;2023-04-03T07:27:10;9.40;;;4.05;;
30068;SDS011;16894;49.456;10.644;2023-04-03T07:29:38;12.82;;;4.75;;
30068;SDS011;16894;49.456;10.644;2023-04-03T07:32:04;11.90;;;6.70;;
30068;SDS011;16894;49.456;10.644;2023-04-03T07:36:57;11.85;;;5.88;;
30068;SDS011;16894;49.456;10.644;2023-04-03T07:39:22;8.88;;;3.80;;
30068;SDS011;16894;49.456;10.644;2023-04-03T07:41:48;7.20;;;3.42;;
30068;SDS011;16894;49.456;10.644;2023-04-03T07:44:14;9.07;;;4.30;;
30068;SDS011;16894;49.456;10.644;2023-04-03T07:46:40;15.07;;;5.10;;
30068;SDS011;16894;49.456;10.644;2023-04-03T07:49:06;9.40;;;4.20;;
30068;SDS011;16894;49.456;10.644;2023-04-03T07:51:31;6.63;;;4.03;;
30068;SDS011;16894;49.456;10.644;2023-04-03T07:53:57;15.90;;;7.03;;
30068;SDS011;16894;49.456;10.644;2023-04-03T07:56:23;17.55;;;7.75;;
30068;SDS011;16894;49.456;10.644;2023-04-03T08:01:16;14.32;;;6.28;;
30068;SDS011;16894;49.456;10.644;2023-04-03T08:03:42;10.75;;;4.55;;
30068;SDS011;16894;49.456;10.644;2023-04-03T08:06:08;12.73;;;5.03;;
30068;SDS011;16894;49.456;10.644;2023-04-03T08:08:34;8.73;;;4.20;;
30068;SDS011;16894;49.456;10.644;2023-04-03T08:11:00;15.88;;;4.32;;
30068;SDS011;16894;49.456;10.644;2023-04-03T08:13:27;9.10;;;5.53;;
30068;SDS011;16894;49.456;10.644;2023-04-03T08:15:54;13.50;;;4.57;;
30068;SDS011;16894;49.456;10.644;2023-04-03T08:18:22;7.93;;;4.20;;
30068;SDS011;16894;49.456;10.644;2023-04-03T08:20:49;6.75;;;4.72;;
30068;SDS011;16894;49.456;10.644;2023-04-03T08:23:16;11.88;;;4.90;;
30068;SDS011;16894;49.456;10.644;2023-04-03T08:28:11;18.35;;;8.52;;
30068;SDS011;16894;49.456;10.644;2023-04-03T08:30:40;18.17;;;6.15;;
30068;SDS011;16894;49.456;10.644;2023-04-03T08:33:07;9.25;;;4.32;;
30068;SDS011;16894;49.456;10.644;2023-04-03T08:38:03;8.05;;;4.25;;
30068;SDS011;16894;49.456;10.644;2023-04-03T08:40:29;7.20;;;4.27;;
30068;SDS011;16894;49.456;10.644;2023-04-03T08:43:17;10.73;;;4.60;;
30068;SDS011;16894;49.456;10.644;2023-04-03T08:45:50;11.65;;;4.63;;
30068;SDS011;16894;49.456;10.644;2023-04-03T08:50:50;10.48;;;3.72;;
30068;SDS011;16894;49.456;10.644;2023-04-03T08:53:20;11.55;;;4.13;;
30068;SDS011;16894;49.456;10.644;2023-04-03T08:55:49;8.95;;;3.65;;
30068;SDS011;16894;49.456;10.644;2023-04-03T08:58:25;12.20;;;4.38;;
30068;SDS011;16894;49.456;10.644;2023-04-03T09:01:04;8.18;;;3.47;;
30068;SDS011;16894;49.456;10.644;2023-04-03T09:03:32;11.57;;;5.03;;
30068;SDS011;16894;49.456;10.644;2023-04-03T09:14:04;8.73;;;4.07;;
30068;SDS011;16894;49.456;10.644;2023-04-03T09:16:43;7.15;;;3.28;;
30068;SDS011;16894;49.456;10.644;2023-04-03T09:21:52;9.32;;;3.75;;
30068;SDS011;16894;49.456;10.644;2023-04-03T09:24:18;10.23;;;4.43;;
30068;SDS011;16894;49.456;10.644;2023-04-03T09:26:57;7.03;;;2.85;;
30068;SDS011;16894;49.456;10.644;2023-04-03T09:29:36;14.30;;;4.43;;
30068;SDS011;16894;49.456;10.644;2023-04-03T09:32:27;6.13;;;2.85;;
30068;SDS011;16894;49.456;10.644;2023-04-03T09:34:56;5.68;;;3.42;;
30068;SDS011;16894;49.456;10.644;2023-04-03T09:37:33;5.63;;;3.70;;
30068;SDS011;16894;49.456;10.644;2023-04-03T09:41:02;8.27;;;3.72;;
30068;SDS011;16894;49.456;10.644;2023-04-03T09:43:00;7.90;;;2.50;;
30068;SDS011;16894;49.456;10.644;2023-04-03T09:45:46;5.18;;;1.92;;
30068;SDS011;16894;49.456;10.644;2023-04-03T09:53:37;8.43;;;3.50;;
30068;SDS011;16894;49.456;10.644;2023-04-03T09:58:48;6.60;;;2.20;;
30068;SDS011;16894;49.456;10.644;2023-04-03T10:06:44;4.70;;;2.28;;
30068;SDS011;16894;49.456;10.644;2023-04-03T10:09:33;5.68;;;2.80;;
30068;SDS011;16894;49.456;10.644;2023-04-03T10:12:00;12.30;;;6.70;;
30068;SDS011;16894;49.456;10.644;2023-04-03T10:14:27;8.35;;;3.92;;
30068;SDS011;16894;49.456;10.644;2023-04-03T10:16:59;8.45;;;2.90;;
30068;SDS011;16894;49.456;10.644;2023-04-03T10:22:23;6.13;;;3.03;;
30068;SDS011;16894;49.456;10.644;2023-04-03T10:30:30;8.75;;;3.95;;
30068;SDS011;16894;49.456;10.644;2023-04-03T10:39:02;7.75;;;3.08;;
30068;SDS011;16894;49.456;10.644;2023-04-03T10:41:55;10.05;;;3.33;;
30068;SDS011;16894;49.456;10.644;2023-04-03T10:52:39;7.40;;;3.33;;
30068;SDS011;16894;49.456;10.644;2023-04-03T10:57:38;10.03;;;3.20;;
30068;SDS011;16894;49.456;10.644;2023-04-03T11:00:06;7.82;;;3.00;;
30068;SDS011;16894;49.456;10.644;2023-04-03T11:02:56;7.97;;;3.92;;
30068;SDS011;16894;49.456;10.644;2023-04-03T11:07:55;5.32;;;3.10;;
30068;SDS011;16894;49.456;10.644;2023-04-03T11:10:29;9.10;;;3.33;;
30068;SDS011;16894;49.456;10.644;2023-04-03T11:15:48;6.63;;;2.75;;
30068;SDS011;16894;49.456;10.644;2023-04-03T11:18:28;4.30;;;2.55;;
30068;SDS011;16894;49.456;10.644;2023-04-03T11:20:59;8.25;;;3.75;;
30068;SDS011;16894;49.456;10.644;2023-04-03T11:23:33;13.05;;;3.28;;
30068;SDS011;16894;49.456;10.644;2023-04-03T11:26:11;5.00;;;2.60;;
30068;SDS011;16894;49.456;10.644;2023-04-03T11:28:39;6.32;;;3.17;;
30068;SDS011;16894;49.456;10.644;2023-04-03T11:36:59;5.50;;;2.15;;
30068;SDS011;16894;49.456;10.644;2023-04-03T11:39:28;18.17;;;7.10;;
30068;SDS011;16894;49.456;10.644;2023-04-03T11:44:49;77.00;;;21.60;;
30068;SDS011;16894;49.456;10.644;2023-04-03T11:47:43;19.83;;;7.37;;
30068;SDS011;16894;49.456;10.644;2023-04-03T11:52:57;52.03;;;18.73;;
30068;SDS011;16894;49.456;10.644;2023-04-03T12:13:42;25.92;;;7.95;;
30068;SDS011;16894;49.456;10.644;2023-04-03T12:19:34;20.58;;;8.35;;
30068;SDS011;16894;49.456;10.644;2023-04-03T12:24:26;15.00;;;6.17;;
30068;SDS011;16894;49.456;10.644;2023-04-03T12:34:42;27.67;;;9.02;;
30068;SDS011;16894;49.456;10.644;2023-04-03T12:37:39;8.80;;;3.10;;
30068;SDS011;16894;49.456;10.644;2023-04-03T12:42:40;19.02;;;6.68;;
30068;SDS011;16894;49.456;10.644;2023-04-03T12:45:29;11.10;;;4.05;;
30068;SDS011;16894;49.456;10.644;2023-04-03T12:48:12;50.05;;;13.70;;
30068;SDS011;16894;49.456;10.644;2023-04-03T12:50:43;13.75;;;4.95;;
30068;SDS011;16894;49.456;10.644;2023-04-03T12:53:12;65.43;;;15.98;;
30068;SDS011;16894;49.456;10.644;2023-04-03T12:55:44;44.75;;;12.88;;
30068;SDS011;16894;49.456;10.644;2023-04-03T12:58:20;88.57;;;23.35;;
30068;SDS011;16894;49.456;10.644;2023-04-03T13:00:58;8.95;;;3.55;;
30068;SDS011;16894;49.456;10.644;2023-04-03T13:03:33;41.47;;;13.32;;
30068;SDS011;16894;49.456;10.644;2023-04-03T13:06:01;47.17;;;20.67;;
30068;SDS011;16894;49.456;10.644;2023-04-03T13:08:28;43.20;;;17.23;;
30068;SDS011;16894;49.456;10.644;2023-04-03T13:11:09;40.08;;;16.15;;
30068;SDS011;16894;49.456;10.644;2023-04-03T13:13:37;9.65;;;3.97;;
30068;SDS011;16894;49.456;10.644;2023-04-03T13:16:08;9.98;;;5.25;;
30068;SDS011;16894;49.456;10.644;2023-04-03T13:18:36;8.90;;;4.15;;
30068;SDS011;16894;49.456;10.644;2023-04-03T13:21:22;14.43;;;7.60;;
30068;SDS011;16894;49.456;10.644;2023-04-03T13:23:49;7.93;;;5.20;;
30068;SDS011;16894;49.456;10.644;2023-04-03T13:26:20;4.93;;;4.43;;
30068;SDS011;16894;49.456;10.644;2023-04-03T13:28:48;12.88;;;6.70;;
30068;SDS011;16894;49.456;10.644;2023-04-03T13:31:28;13.68;;;12.13;;
30068;SDS011;16894;49.456;10.644;2023-04-03T13:34:06;13.90;;;12.50;;
30068;SDS011;16894;49.456;10.644;2023-04-03T13:41:48;24.33;;;19.58;;
30068;SDS011;16894;49.456;10.644;2023-04-03T13:46:51;15.80;;;7.38;;
30068;SDS011;16894;49.456;10.644;2023-04-03T13:49:22;11.48;;;8.25;;
30068;SDS011;16894;49.456;10.644;2023-04-03T13:54:22;8.10;;;7.30;;
30068;SDS011;16894;49.456;10.644;2023-04-03T13:56:57;11.65;;;10.75;;
30068;SDS011;16894;49.456;10.644;2023-04-03T13:59:27;10.55;;;9.57;;
30068;SDS011;16894;49.456;10.644;2023-04-03T14:06:57;10.30;;;8.93;;
30068;SDS011;16894;49.456;10.644;2023-04-03T14:09:24;14.82;;;9.20;;
30068;SDS011;16894;49.456;10.644;2023-04-03T14:11:55;21.00;;;13.98;;
30068;SDS011;16894;49.456;10.644;2023-04-03T14:14:27;20.70;;;13.73;;
30068;SDS011;16894;49.456;10.644;2023-04-03T14:17:00;21.48;;;19.50;;
30068;SDS011;16894;49.456;10.644;2023-04-03T14:19:34;13.05;;;11.75;;
30068;SDS011;16894;49.456;10.644;2023-04-03T14:22:05;25.30;;;18.55;;
30068;SDS011;16894;49.456;10.644;2023-04-03T14:24:37;41.13;;;24.33;;
30068;SDS011;16894;49.456;10.644;2023-04-03T14:27:05;22.95;;;13.38;;
30068;SDS011;16894;49.456;10.644;2023-04-03T14:29:42;11.43;;;7.38;;
30068;SDS011;16894;49.456;10.644;2023-04-03T14:32:10;18.15;;;10.70;;
30068;SDS011;16894;49.456;10.644;2023-04-03T14:34:41;12.32;;;7.82;;
30068;SDS011;16894;49.456;10.644;2023-04-03T14:37:12;21.17;;;14.07;;
30068;SDS011;16894;49.456;10.644;2023-04-03T14:39:40;19.48;;;10.02;;
30068;SDS011;16894;49.456;10.644;2023-04-03T14:42:11;6.13;;;5.63;;
30068;SDS011;16894;49.456;10.644;2023-04-03T14:44:38;11.75;;;7.70;;
30068;SDS011;16894;49.456;10.644;2023-04-03T14:47:04;6.85;;;5.80;;
30068;SDS011;16894;49.456;10.644;2023-04-03T14:51:56;9.63;;;7.05;;
30068;SDS011;16894;49.456;10.644;2023-04-03T14:56:53;30.88;;;16.77;;
30068;SDS011;16894;49.456;10.644;2023-04-03T14:59:20;9.23;;;6.55;;
30068;SDS011;16894;49.456;10.644;2023-04-03T15:04:17;21.75;;;13.02;;
30068;SDS011;16894;49.456;10.644;2023-04-03T15:06:45;38.05;;;19.67;;
30068;SDS011;16894;49.456;10.644;2023-04-03T15:09:18;23.17;;;15.43;;
30068;SDS011;16894;49.456;10.644;2023-04-03T15:11:44;9.20;;;7.03;;
30068;SDS011;16894;49.456;10.644;2023-04-03T15:14:10;20.90;;;13.05;;
30068;SDS011;16894;49.456;10.644;2023-04-03T15:16:36;33.43;;;18.13;;
30068;SDS011;16894;49.456;10.644;2023-04-03T15:19:02;35.97;;;18.40;;
30068;SDS011;16894;49.456;10.644;2023-04-03T15:21:28;6.40;;;5.03;;
30068;SDS011;16894;49.456;10.644;2023-04-03T15:23:53;11.57;;;8.20;;
30068;SDS011;16894;49.456;10.644;2023-04-03T15:26:19;23.23;;;14.57;;
30068;SDS011;16894;49.456;10.644;2023-04-03T15:28:45;6.90;;;5.93;;
30068;SDS011;16894;49.456;10.644;2023-04-03T15:31:11;12.20;;;7.10;;
30068;SDS011;16894;49.456;10.644;2023-04-03T15:33:37;10.95;;;9.55;;
30068;SDS011;16894;49.456;10.644;2023-04-03T15:36:04;18.30;;;16.00;;
30068;SDS011;16894;49.456;10.644;2023-04-03T15:40:56;11.52;;;8.90;;
30068;SDS011;16894;49.456;10.644;2023-04-03T15:43:21;16.50;;;15.13;;
30068;SDS011;16894;49.456;10.644;2023-04-03T15:45:48;8.07;;;7.18;;
30068;SDS011;16894;49.456;10.644;2023-04-03T15:50:40;10.07;;;6.40;;
30068;SDS011;16894;49.456;10.644;2023-04-03T15:53:06;8.98;;;4.22;;
30068;SDS011;16894;49.456;10.644;2023-04-03T15:55:33;3.70;;;3.45;;
30068;SDS011;16894;49.456;10.644;2023-04-03T15:58:01;6.28;;;3.30;;
30068;SDS011;16894;49.456;10.644;2023-04-03T16:00:27;4.18;;;2.95;;
30068;SDS011;16894;49.456;10.644;2023-04-03T16:02:55;4.60;;;3.00;;
30068;SDS011;16894;49.456;10.644;2023-04-03T16:05:24;4.20;;;2.75;;
30068;SDS011;16894;49.456;10.644;2023-04-03T16:07:50;6.53;;;2.70;;
30068;SDS011;16894;49.456;10.644;2023-04-03T16:10:17;10.98;;;2.75;;
30068;SDS011;16894;49.456;10.644;2023-04-03T16:12:43;6.82;;;2.90;;
30068;SDS011;16894;49.456;10.644;2023-04-03T16:15:09;6.35;;;2.60;;
30068;SDS011;16894;49.456;10.644;2023-04-03T16:17:35;9.35;;;3.90;;
30068;SDS011;16894;49.456;10.644;2023-04-03T16:20:03;6.95;;;3.67;;
30068;SDS011;16894;49.456;10.644;2023-04-03T16:22:32;7.53;;;3.88;;
30068;SDS011;16894;49.456;10.644;2023-04-03T16:27:25;20.80;;;11.23;;
30068;SDS011;16894;49.456;10.644;2023-04-03T16:30:01;13.52;;;3.47;;
30068;SDS011;16894;49.456;10.644;2023-04-03T16:32:29;95.10;;;10.80;;
30068;SDS011;16894;49.456;10.644;2023-04-03T16:34:58;22.50;;;4.45;;
30068;SDS011;16894;49.456;10.644;2023-04-03T16:37:24;4.45;;;2.20;;
30068;SDS011;16894;49.456;10.644;2023-04-03T16:39:50;4.20;;;2.27;;
30068;SDS011;16894;49.456;10.644;2023-04-03T16:42:16;34.22;;;5.15;;
30068;SDS011;16894;49.456;10.644;2023-04-03T16:44:51;7.43;;;2.47;;
30068;SDS011;16894;49.456;10.644;2023-04-03T16:47:17;23.00;;;3.05;;
30068;SDS011;16894;49.456;10.644;2023-04-03T16:49:45;8.00;;;2.63;;
30068;SDS011;16894;49.456;10.644;2023-04-03T16:52:12;6.15;;;2.00;;
30068;SDS011;16894;49.456;10.644;2023-04-03T16:54:38;8.82;;;2.53;;
30068;SDS011;16894;49.456;10.644;2023-04-03T16:57:04;4.07;;;2.70;;
30068;SDS011;16894;49.456;10.644;2023-04-03T16:59:30;7.10;;;2.35;;
30068;SDS011;16894;49.456;10.644;2023-04-03T17:01:55;20.13;;;3.33;;
30068;SDS011;16894;49.456;10.644;2023-04-03T17:04:21;7.40;;;2.10;;
30068;SDS011;16894;49.456;10.644;2023-04-03T17:06:47;12.67;;;2.10;;
30068;SDS011;16894;49.456;10.644;2023-04-03T17:09:13;10.75;;;3.15;;
30068;SDS011;16894;49.456;10.644;2023-04-03T17:11:38;65.00;;;6.17;;
30068;SDS011;16894;49.456;10.644;2023-04-03T17:14:04;6.60;;;2.40;;
30068;SDS011;16894;49.456;10.644;2023-04-03T17:16:36;20.42;;;3.72;;